sensor_id;sensor_type;location;lat;lon;timestamp;pressure;altitude;pressure_sealevel;temperature;humidity
14117;BME280;7137;51.436;6.544;2024-01-11T00:02:08;102736.38;;;-3.65;83.37
14117;BME280;7137;51.436;6.544;2024-01-11T00:05:10;102735.66;;;-3.62;83.87
14117;BME280;7137;51.436;6.544;2024-01-11T00:08:11;102741.38;;;-3.66;83.76
14117;BME280;7137;51.436;6.544;2024-01-11T00:11:13;102752.97;;;-3.86;84.53
14117;BME280;7137;51.436;6.544;2024-01-11T00:14:16;102756.13;;;-3.90;84.92
14117;BME280;7137;51.436;6.544;2024-01-11T00:17:17;102755.78;;;-3.81;85.63
14117;BME280;7137;51.436;6.544;2024-01-11T00:20:19;102757.22;;;-3.72;84.77
14117;BME280;7137;51.436;6.544;2024-01-11T00:23:20;102748.44;;;-3.62;83.92
14117;BME280;7137;51.436;6.544;2024-01-11T00:26:23;102753.47;;;-3.64;83.23
14117;BME280;7137;51.436;6.544;2024-01-11T00:29:25;102745.72;;;-3.65;83.68
14117;BME280;7137;51.436;6.544;2024-01-11T00:32:28;102738.56;;;-3.56;84.45
14117;BME280;7137;51.436;6.544;2024-01-11T00:35:30;102733.75;;;-3.51;84.06
14117;BME280;7137;51.436;6.544;2024-01-11T00:38:31;102737.44;;;-3.46;83.83
14117;BME280;7137;51.436;6.544;2024-01-11T00:41:32;102736.81;;;-3.42;83.03
14117;BME280;7137;51.436;6.544;2024-01-11T00:44:35;102732.41;;;-3.45;83.05
14117;BME280;7137;51.436;6.544;2024-01-11T00:47:37;102736.56;;;-3.62;83.83
14117;BME280;7137;51.436;6.544;2024-01-11T00:50:38;102735.81;;;-3.74;84.07
14117;BME280;7137;51.436;6.544;2024-01-11T00:53:39;102725.44;;;-3.77;85.05
14117;BME280;7137;51.436;6.544;2024-01-11T00:56:41;102727.94;;;-3.64;84.99
14117;BME280;7137;51.436;6.544;2024-01-11T00:59:44;102724.91;;;-3.56;83.74
14117;BME280;7137;51.436;6.544;2024-01-11T01:02:45;102731.09;;;-3.53;84.48
14117;BME280;7137;51.436;6.544;2024-01-11T01:05:47;102730.50;;;-3.49;83.24
14117;BME280;7137;51.436;6.544;2024-01-11T01:08:48;102727.72;;;-3.67;84.31
14117;BME280;7137;51.436;6.544;2024-01-11T01:11:50;102721.94;;;-3.64;84.61
14117;BME280;7137;51.436;6.544;2024-01-11T01:14:52;102730.97;;;-3.69;84.14
14117;BME280;7137;51.436;6.544;2024-01-11T01:17:54;102731.44;;;-3.62;84.54
14117;BME280;7137;51.436;6.544;2024-01-11T01:20:56;102742.28;;;-3.66;84.29
14117;BME280;7137;51.436;6.544;2024-01-11T01:23:57;102740.56;;;-3.80;85.19
14117;BME280;7137;51.436;6.544;2024-01-11T01:26:59;102736.44;;;-3.78;85.31
14117;BME280;7137;51.436;6.544;2024-01-11T01:30:02;102735.47;;;-3.80;85.55
14117;BME280;7137;51.436;6.544;2024-01-11T01:33:04;102742.84;;;-3.84;85.92
14117;BME280;7137;51.436;6.544;2024-01-11T01:36:08;102742.19;;;-3.95;86.20
14117;BME280;7137;51.436;6.544;2024-01-11T01:39:09;102754.75;;;-3.98;86.72
14117;BME280;7137;51.436;6.544;2024-01-11T01:42:11;102766.09;;;-4.08;86.62
14117;BME280;7137;51.436;6.544;2024-01-11T01:45:15;102760.06;;;-4.36;88.36
14117;BME280;7137;51.436;6.544;2024-01-11T01:48:17;102759.69;;;-4.42;88.85
14117;BME280;7137;51.436;6.544;2024-01-11T01:51:18;102763.72;;;-4.46;89.32
14117;BME280;7137;51.436;6.544;2024-01-11T01:54:20;102764.09;;;-4.40;89.43
14117;BME280;7137;51.436;6.544;2024-01-11T01:57:24;102763.53;;;-4.49;89.89
14117;BME280;7137;51.436;6.544;2024-01-11T02:00:27;102759.19;;;-4.37;90.00
14117;BME280;7137;51.436;6.544;2024-01-11T02:03:29;102745.25;;;-4.29;89.03
14117;BME280;7137;51.436;6.544;2024-01-11T02:06:32;102748.28;;;-4.21;88.51
14117;BME280;7137;51.436;6.544;2024-01-11T02:09:36;102749.63;;;-4.13;88.33
14117;BME280;7137;51.436;6.544;2024-01-11T02:12:38;102752.22;;;-3.98;87.69
14117;BME280;7137;51.436;6.544;2024-01-11T02:15:43;102756.38;;;-4.13;88.01
14117;BME280;7137;51.436;6.544;2024-01-11T02:18:44;102755.94;;;-4.21;87.53
14117;BME280;7137;51.436;6.544;2024-01-11T02:21:48;102764.81;;;-4.14;88.78
14117;BME280;7137;51.436;6.544;2024-01-11T02:24:52;102765.97;;;-4.09;87.84
14117;BME280;7137;51.436;6.544;2024-01-11T02:27:53;102766.41;;;-4.16;87.13
14117;BME280;7137;51.436;6.544;2024-01-11T02:30:55;102772.97;;;-4.07;87.66
14117;BME280;7137;51.436;6.544;2024-01-11T02:33:56;102771.22;;;-4.08;87.52
14117;BME280;7137;51.436;6.544;2024-01-11T02:36:58;102759.72;;;-4.14;87.02
14117;BME280;7137;51.436;6.544;2024-01-11T02:40:01;102769.31;;;-4.10;87.68
14117;BME280;7137;51.436;6.544;2024-01-11T02:43:07;102767.59;;;-4.25;87.60
14117;BME280;7137;51.436;6.544;2024-01-11T02:46:09;102760.84;;;-4.37;88.44
14117;BME280;7137;51.436;6.544;2024-01-11T02:49:10;102755.09;;;-4.35;89.42
14117;BME280;7137;51.436;6.544;2024-01-11T02:52:12;102752.38;;;-4.23;88.86
14117;BME280;7137;51.436;6.544;2024-01-11T02:55:15;102760.84;;;-4.37;89.35
14117;BME280;7137;51.436;6.544;2024-01-11T02:58:16;102757.75;;;-4.60;90.40
14117;BME280;7137;51.436;6.544;2024-01-11T03:01:18;102755.31;;;-4.58;91.41
14117;BME280;7137;51.436;6.544;2024-01-11T03:04:19;102768.22;;;-4.55;91.56
14117;BME280;7137;51.436;6.544;2024-01-11T03:07:21;102769.97;;;-4.41;91.64
14117;BME280;7137;51.436;6.544;2024-01-11T03:10:23;102758.44;;;-4.49;90.38
14117;BME280;7137;51.436;6.544;2024-01-11T03:13:25;102755.75;;;-4.51;91.50
14117;BME280;7137;51.436;6.544;2024-01-11T03:16:26;102751.75;;;-4.47;90.73
14117;BME280;7137;51.436;6.544;2024-01-11T03:19:28;102756.69;;;-4.50;90.51
14117;BME280;7137;51.436;6.544;2024-01-11T03:22:29;102753.34;;;-4.49;90.45
14117;BME280;7137;51.436;6.544;2024-01-11T03:25:32;102739.72;;;-4.50;91.28
14117;BME280;7137;51.436;6.544;2024-01-11T03:28:33;102752.22;;;-4.39;90.63
14117;BME280;7137;51.436;6.544;2024-01-11T03:31:35;102764.41;;;-4.49;90.29
14117;BME280;7137;51.436;6.544;2024-01-11T03:34:38;102759.44;;;-4.60;90.45
14117;BME280;7137;51.436;6.544;2024-01-11T03:37:39;102760.22;;;-4.61;90.70
14117;BME280;7137;51.436;6.544;2024-01-11T03:40:42;102771.28;;;-4.87;91.67
14117;BME280;7137;51.436;6.544;2024-01-11T03:43:44;102759.53;;;-4.98;92.33
14117;BME280;7137;51.436;6.544;2024-01-11T03:46:45;102757.47;;;-5.04;92.81
14117;BME280;7137;51.436;6.544;2024-01-11T03:49:46;102766.66;;;-5.19;93.54
14117;BME280;7137;51.436;6.544;2024-01-11T03:52:48;102760.50;;;-5.10;93.76
14117;BME280;7137;51.436;6.544;2024-01-11T03:55:51;102757.25;;;-4.94;93.05
14117;BME280;7137;51.436;6.544;2024-01-11T03:58:52;102779.28;;;-5.08;93.23
14117;BME280;7137;51.436;6.544;2024-01-11T04:01:53;102784.28;;;-5.09;93.38
14117;BME280;7137;51.436;6.544;2024-01-11T04:04:55;102784.81;;;-5.01;92.98
14117;BME280;7137;51.436;6.544;2024-01-11T04:07:56;102781.56;;;-5.12;92.99
14117;BME280;7137;51.436;6.544;2024-01-11T04:11:01;102791.84;;;-5.11;93.51
14117;BME280;7137;51.436;6.544;2024-01-11T04:14:03;102794.28;;;-5.12;92.99
14117;BME280;7137;51.436;6.544;2024-01-11T04:17:04;102793.56;;;-5.23;93.17
14117;BME280;7137;51.436;6.544;2024-01-11T04:20:07;102795.25;;;-5.23;93.33
14117;BME280;7137;51.436;6.544;2024-01-11T04:23:09;102799.78;;;-5.19;93.38
14117;BME280;7137;51.436;6.544;2024-01-11T04:26:12;102788.50;;;-5.10;93.01
14117;BME280;7137;51.436;6.544;2024-01-11T04:29:13;102799.25;;;-5.27;92.29
14117;BME280;7137;51.436;6.544;2024-01-11T04:32:14;102795.53;;;-5.32;92.63
14117;BME280;7137;51.436;6.544;2024-01-11T04:35:16;102790.91;;;-5.38;93.05
14117;BME280;7137;51.436;6.544;2024-01-11T04:38:17;102796.56;;;-5.42;92.87
14117;BME280;7137;51.436;6.544;2024-01-11T04:41:20;102803.44;;;-5.41;93.01
14117;BME280;7137;51.436;6.544;2024-01-11T04:44:22;102805.00;;;-5.43;93.44
14117;BME280;7137;51.436;6.544;2024-01-11T04:47:23;102812.53;;;-5.44;93.03
14117;BME280;7137;51.436;6.544;2024-01-11T04:50:24;102818.50;;;-5.44;92.67
14117;BME280;7137;51.436;6.544;2024-01-11T04:53:26;102807.84;;;-5.38;92.97
14117;BME280;7137;51.436;6.544;2024-01-11T04:56:29;102807.72;;;-5.40;92.54
14117;BME280;7137;51.436;6.544;2024-01-11T04:59:30;102807.34;;;-5.46;92.47
14117;BME280;7137;51.436;6.544;2024-01-11T05:02:32;102815.75;;;-5.47;92.88
14117;BME280;7137;51.436;6.544;2024-01-11T05:05:33;102802.06;;;-5.49;92.55
14117;BME280;7137;51.436;6.544;2024-01-11T05:08:35;102808.47;;;-5.54;92.85
14117;BME280;7137;51.436;6.544;2024-01-11T05:11:38;102806.41;;;-5.59;93.88
14117;BME280;7137;51.436;6.544;2024-01-11T05:14:39;102813.94;;;-5.61;93.85
14117;BME280;7137;51.436;6.544;2024-01-11T05:17:41;102827.78;;;-5.69;93.60
14117;BME280;7137;51.436;6.544;2024-01-11T05:20:43;102818.59;;;-5.67;93.61
14117;BME280;7137;51.436;6.544;2024-01-11T05:23:44;102824.56;;;-5.67;94.42
14117;BME280;7137;51.436;6.544;2024-01-11T05:26:47;102829.31;;;-5.59;93.67
14117;BME280;7137;51.436;6.544;2024-01-11T05:29:49;102838.50;;;-5.61;93.60
14117;BME280;7137;51.436;6.544;2024-01-11T05:32:50;102838.03;;;-5.56;94.01
14117;BME280;7137;51.436;6.544;2024-01-11T05:35:51;102837.69;;;-5.49;93.62
14117;BME280;7137;51.436;6.544;2024-01-11T05:38:53;102840.00;;;-5.52;93.92
14117;BME280;7137;51.436;6.544;2024-01-11T05:41:56;102841.47;;;-5.55;94.15
14117;BME280;7137;51.436;6.544;2024-01-11T05:44:58;102840.31;;;-5.47;93.75
14117;BME280;7137;51.436;6.544;2024-01-11T05:47:59;102852.38;;;-5.45;93.45
14117;BME280;7137;51.436;6.544;2024-01-11T05:51:01;102859.47;;;-5.52;93.99
14117;BME280;7137;51.436;6.544;2024-01-11T05:54:02;102868.88;;;-5.51;93.26
14117;BME280;7137;51.436;6.544;2024-01-11T05:57:05;102866.59;;;-5.60;93.85
14117;BME280;7137;51.436;6.544;2024-01-11T06:00:08;102878.88;;;-5.66;93.87
14117;BME280;7137;51.436;6.544;2024-01-11T06:03:11;102866.94;;;-5.67;93.81
14117;BME280;7137;51.436;6.544;2024-01-11T06:06:12;102877.81;;;-5.70;94.42
14117;BME280;7137;51.436;6.544;2024-01-11T06:09:14;102857.22;;;-5.61;93.84
14117;BME280;7137;51.436;6.544;2024-01-11T06:12:17;102848.88;;;-5.58;93.92
14117;BME280;7137;51.436;6.544;2024-01-11T06:15:18;102860.72;;;-5.59;93.14
14117;BME280;7137;51.436;6.544;2024-01-11T06:18:20;102858.09;;;-5.60;93.27
14117;BME280;7137;51.436;6.544;2024-01-11T06:21:21;102840.69;;;-5.54;92.97
14117;BME280;7137;51.436;6.544;2024-01-11T06:24:23;102850.66;;;-5.32;92.52
14117;BME280;7137;51.436;6.544;2024-01-11T06:27:25;102850.72;;;-5.44;91.76
14117;BME280;7137;51.436;6.544;2024-01-11T06:30:27;102852.91;;;-5.62;93.32
14117;BME280;7137;51.436;6.544;2024-01-11T06:33:28;102845.97;;;-5.51;92.99
14117;BME280;7137;51.436;6.544;2024-01-11T06:36:30;102838.19;;;-5.41;92.53
14117;BME280;7137;51.436;6.544;2024-01-11T06:39:33;102847.72;;;-5.25;92.00
14117;BME280;7137;51.436;6.544;2024-01-11T06:42:35;102864.91;;;-5.48;91.77
14117;BME280;7137;51.436;6.544;2024-01-11T06:45:37;102856.38;;;-5.48;91.85
14117;BME280;7137;51.436;6.544;2024-01-11T06:48:39;102856.72;;;-5.55;92.31
14117;BME280;7137;51.436;6.544;2024-01-11T06:51:41;102864.97;;;-5.34;92.15
14117;BME280;7137;51.436;6.544;2024-01-11T06:54:42;102870.97;;;-5.21;91.17
14117;BME280;7137;51.436;6.544;2024-01-11T06:57:47;102877.94;;;-5.18;91.11
14117;BME280;7137;51.436;6.544;2024-01-11T07:00:49;102894.94;;;-5.30;90.57
14117;BME280;7137;51.436;6.544;2024-01-11T07:03:51;102901.34;;;-5.35;91.43
14117;BME280;7137;51.436;6.544;2024-01-11T07:06:52;102903.25;;;-5.33;91.35
14117;BME280;7137;51.436;6.544;2024-01-11T07:09:54;102890.72;;;-5.30;91.46
14117;BME280;7137;51.436;6.544;2024-01-11T07:12:57;102885.72;;;-5.28;91.38
14117;BME280;7137;51.436;6.544;2024-01-11T07:15:59;102879.84;;;-5.27;91.74
14117;BME280;7137;51.436;6.544;2024-01-11T07:19:03;102882.56;;;-5.13;90.86
14117;BME280;7137;51.436;6.544;2024-01-11T07:22:05;102896.38;;;-5.09;90.18
14117;BME280;7137;51.436;6.544;2024-01-11T07:25:07;102885.25;;;-5.23;90.54
14117;BME280;7137;51.436;6.544;2024-01-11T07:28:10;102912.66;;;-5.32;90.44
14117;BME280;7137;51.436;6.544;2024-01-11T07:31:11;102917.13;;;-5.53;91.80
14117;BME280;7137;51.436;6.544;2024-01-11T07:34:13;102911.19;;;-5.65;92.90
14117;BME280;7137;51.436;6.544;2024-01-11T07:37:14;102918.78;;;-5.53;93.26
14117;BME280;7137;51.436;6.544;2024-01-11T07:40:16;102922.66;;;-5.47;92.92
14117;BME280;7137;51.436;6.544;2024-01-11T07:43:19;102914.09;;;-5.35;92.87
14117;BME280;7137;51.436;6.544;2024-01-11T07:46:20;102904.25;;;-5.31;92.36
14117;BME280;7137;51.436;6.544;2024-01-11T07:49:22;102898.09;;;-5.21;91.98
14117;BME280;7137;51.436;6.544;2024-01-11T07:52:23;102899.28;;;-5.16;92.52
14117;BME280;7137;51.436;6.544;2024-01-11T07:55:25;102890.38;;;-5.10;91.69
14117;BME280;7137;51.436;6.544;2024-01-11T07:58:28;102895.91;;;-5.03;91.18
14117;BME280;7137;51.436;6.544;2024-01-11T08:01:29;102892.00;;;-4.98;91.47
14117;BME280;7137;51.436;6.544;2024-01-11T08:04:31;102892.19;;;-4.95;91.03
14117;BME280;7137;51.436;6.544;2024-01-11T08:07:32;102896.06;;;-4.89;91.44
14117;BME280;7137;51.436;6.544;2024-01-11T08:10:34;102904.09;;;-4.83;90.75
14117;BME280;7137;51.436;6.544;2024-01-11T08:13:36;102898.31;;;-4.80;90.50
14117;BME280;7137;51.436;6.544;2024-01-11T08:16:38;102905.41;;;-4.76;90.90
14117;BME280;7137;51.436;6.544;2024-01-11T08:19:40;102899.91;;;-4.69;90.49
14117;BME280;7137;51.436;6.544;2024-01-11T08:22:42;102914.41;;;-4.68;89.28
14117;BME280;7137;51.436;6.544;2024-01-11T08:25:44;102906.47;;;-4.72;90.03
14117;BME280;7137;51.436;6.544;2024-01-11T08:28:47;102906.56;;;-4.71;90.74
14117;BME280;7137;51.436;6.544;2024-01-11T08:31:48;102895.22;;;-4.63;90.90
14117;BME280;7137;51.436;6.544;2024-01-11T08:34:50;102901.59;;;-4.43;90.48
14117;BME280;7137;51.436;6.544;2024-01-11T08:37:51;102909.31;;;-4.68;90.02
14117;BME280;7137;51.436;6.544;2024-01-11T08:40:53;102925.13;;;-4.98;90.47
14117;BME280;7137;51.436;6.544;2024-01-11T08:43:56;102920.44;;;-5.17;92.17
14117;BME280;7137;51.436;6.544;2024-01-11T08:46:57;102920.56;;;-5.16;93.37
14117;BME280;7137;51.436;6.544;2024-01-11T08:49:59;102926.03;;;-5.10;93.58
14117;BME280;7137;51.436;6.544;2024-01-11T08:53:02;102924.91;;;-5.01;93.49
14117;BME280;7137;51.436;6.544;2024-01-11T08:56:04;102922.59;;;-4.85;92.60
14117;BME280;7137;51.436;6.544;2024-01-11T08:59:07;102931.06;;;-4.73;93.25
14117;BME280;7137;51.436;6.544;2024-01-11T09:02:09;102931.94;;;-4.08;92.33
14117;BME280;7137;51.436;6.544;2024-01-11T09:05:13;102922.78;;;-3.09;84.88
14117;BME280;7137;51.436;6.544;2024-01-11T09:08:15;102931.81;;;-3.42;85.97
14117;BME280;7137;51.436;6.544;2024-01-11T09:11:17;102928.69;;;-3.38;85.56
14117;BME280;7137;51.436;6.544;2024-01-11T09:14:19;102930.25;;;-2.97;84.70
14117;BME280;7137;51.436;6.544;2024-01-11T09:17:21;102933.44;;;-3.29;85.06
14117;BME280;7137;51.436;6.544;2024-01-11T09:20:22;102945.66;;;-3.10;85.45
14117;BME280;7137;51.436;6.544;2024-01-11T09:23:24;102951.22;;;-3.03;83.79
14117;BME280;7137;51.436;6.544;2024-01-11T09:26:25;102943.69;;;-2.72;83.85
14117;BME280;7137;51.436;6.544;2024-01-11T09:29:28;102960.78;;;-2.85;83.17
14117;BME280;7137;51.436;6.544;2024-01-11T09:32:30;102949.59;;;-2.87;82.60
14117;BME280;7137;51.436;6.544;2024-01-11T09:35:31;102948.31;;;-2.66;82.03
14117;BME280;7137;51.436;6.544;2024-01-11T09:38:33;102938.59;;;-2.72;81.04
14117;BME280;7137;51.436;6.544;2024-01-11T09:41:36;102960.47;;;-2.77;80.72
14117;BME280;7137;51.436;6.544;2024-01-11T09:44:40;102962.78;;;-2.66;81.54
14117;BME280;7137;51.436;6.544;2024-01-11T09:47:43;102966.31;;;-2.64;81.49
14117;BME280;7137;51.436;6.544;2024-01-11T09:50:46;102975.84;;;-2.47;80.56
14117;BME280;7137;51.436;6.544;2024-01-11T09:53:50;102969.03;;;-2.47;80.95
14117;BME280;7137;51.436;6.544;2024-01-11T09:56:53;102971.06;;;-2.26;80.81
14117;BME280;7137;51.436;6.544;2024-01-11T09:59:57;102972.81;;;-2.25;79.69
14117;BME280;7137;51.436;6.544;2024-01-11T10:02:59;102972.13;;;-2.23;80.22
14117;BME280;7137;51.436;6.544;2024-01-11T10:06:02;102972.47;;;-2.02;78.84
14117;BME280;7137;51.436;6.544;2024-01-11T10:09:04;102980.59;;;-1.94;79.07
14117;BME280;7137;51.436;6.544;2024-01-11T10:12:06;102982.69;;;-1.87;79.63
14117;BME280;7137;51.436;6.544;2024-01-11T10:15:11;102992.44;;;-2.11;78.71
14117;BME280;7137;51.436;6.544;2024-01-11T10:18:13;103003.97;;;-2.03;80.31
14117;BME280;7137;51.436;6.544;2024-01-11T10:21:15;102990.13;;;-2.06;80.72
14117;BME280;7137;51.436;6.544;2024-01-11T10:24:18;102990.75;;;-2.11;79.79
14117;BME280;7137;51.436;6.544;2024-01-11T10:27:25;102995.66;;;-1.99;80.70
14117;BME280;7137;51.436;6.544;2024-01-11T10:30:28;102992.16;;;-1.70;80.32
14117;BME280;7137;51.436;6.544;2024-01-11T10:33:30;102989.44;;;-1.73;79.27
14117;BME280;7137;51.436;6.544;2024-01-11T10:36:31;102989.44;;;-1.73;78.60
14117;BME280;7137;51.436;6.544;2024-01-11T10:39:34;102995.25;;;-1.61;78.51
14117;BME280;7137;51.436;6.544;2024-01-11T10:42:40;103001.91;;;-1.64;77.79
14117;BME280;7137;51.436;6.544;2024-01-11T10:45:44;102997.09;;;-1.58;76.84
14117;BME280;7137;51.436;6.544;2024-01-11T10:48:51;102991.91;;;-1.43;76.35
14117;BME280;7137;51.436;6.544;2024-01-11T10:51:59;102993.50;;;-1.62;76.84
14117;BME280;7137;51.436;6.544;2024-01-11T10:55:01;102988.16;;;-1.50;75.97
14117;BME280;7137;51.436;6.544;2024-01-11T10:58:03;102992.28;;;-1.37;76.24
14117;BME280;7137;51.436;6.544;2024-01-11T11:01:06;102987.88;;;-1.24;76.35
14117;BME280;7137;51.436;6.544;2024-01-11T11:04:09;102986.28;;;-1.38;75.69
14117;BME280;7137;51.436;6.544;2024-01-11T11:07:12;102981.09;;;-1.07;76.51
14117;BME280;7137;51.436;6.544;2024-01-11T11:10:15;102976.34;;;-0.99;74.75
14117;BME280;7137;51.436;6.544;2024-01-11T11:13:18;102972.66;;;-0.88;74.21
14117;BME280;7137;51.436;6.544;2024-01-11T11:16:21;102985.41;;;-0.90;73.48
14117;BME280;7137;51.436;6.544;2024-01-11T11:19:24;102985.31;;;-0.75;72.90
14117;BME280;7137;51.436;6.544;2024-01-11T11:22:26;102980.44;;;-0.86;73.07
14117;BME280;7137;51.436;6.544;2024-01-11T11:25:29;102975.09;;;-0.57;72.53
14117;BME280;7137;51.436;6.544;2024-01-11T11:28:32;102976.41;;;-0.31;71.22
14117;BME280;7137;51.436;6.544;2024-01-11T11:31:36;102968.34;;;-0.21;69.61
14117;BME280;7137;51.436;6.544;2024-01-11T11:34:42;102977.47;;;-0.10;69.66
14117;BME280;7137;51.436;6.544;2024-01-11T11:37:44;102971.00;;;-0.19;69.34
14117;BME280;7137;51.436;6.544;2024-01-11T11:40:46;102970.97;;;-0.37;70.69
14117;BME280;7137;51.436;6.544;2024-01-11T11:43:49;102976.06;;;-0.03;68.92
14117;BME280;7137;51.436;6.544;2024-01-11T11:46:54;102971.69;;;-0.06;68.44
14117;BME280;7137;51.436;6.544;2024-01-11T11:50:03;102973.75;;;0.02;68.16
14117;BME280;7137;51.436;6.544;2024-01-11T11:53:05;102977.16;;;-0.16;67.87
14117;BME280;7137;51.436;6.544;2024-01-11T11:56:09;102978.56;;;-0.05;67.98
14117;BME280;7137;51.436;6.544;2024-01-11T11:59:11;102970.44;;;-0.14;68.17
14117;BME280;7137;51.436;6.544;2024-01-11T12:02:16;102970.78;;;0.12;68.39
14117;BME280;7137;51.436;6.544;2024-01-11T12:05:18;102965.00;;;-0.02;68.13
14117;BME280;7137;51.436;6.544;2024-01-11T12:08:20;102963.00;;;0.10;68.07
14117;BME280;7137;51.436;6.544;2024-01-11T12:11:22;102947.97;;;-0.18;68.23
14117;BME280;7137;51.436;6.544;2024-01-11T12:14:24;102951.06;;;-0.25;69.20
14117;BME280;7137;51.436;6.544;2024-01-11T12:17:28;102947.00;;;-0.20;68.90
14117;BME280;7137;51.436;6.544;2024-01-11T12:20:29;102950.53;;;-0.18;68.67
14117;BME280;7137;51.436;6.544;2024-01-11T12:23:31;102940.13;;;-0.03;69.09
14117;BME280;7137;51.436;6.544;2024-01-11T12:26:33;102943.72;;;0.01;70.79
14117;BME280;7137;51.436;6.544;2024-01-11T12:29:35;102942.13;;;0.03;71.06
14117;BME280;7137;51.436;6.544;2024-01-11T12:32:38;102940.19;;;-0.02;71.95
14117;BME280;7137;51.436;6.544;2024-01-11T12:35:40;102943.34;;;-0.07;71.47
14117;BME280;7137;51.436;6.544;2024-01-11T12:38:46;102951.56;;;0.04;71.50
14117;BME280;7137;51.436;6.544;2024-01-11T12:41:49;102957.34;;;-0.01;71.38
14117;BME280;7137;51.436;6.544;2024-01-11T12:44:50;102959.56;;;0.10;71.18
14117;BME280;7137;51.436;6.544;2024-01-11T12:47:53;102949.16;;;0.07;70.50
14117;BME280;7137;51.436;6.544;2024-01-11T12:50:56;102938.13;;;0.09;70.56
14117;BME280;7137;51.436;6.544;2024-01-11T12:53:58;102949.06;;;0.23;69.82
14117;BME280;7137;51.436;6.544;2024-01-11T12:57:00;102956.25;;;0.12;68.91
14117;BME280;7137;51.436;6.544;2024-01-11T13:00:09;102956.66;;;0.02;68.22
14117;BME280;7137;51.436;6.544;2024-01-11T13:03:13;102961.03;;;0.05;68.15
14117;BME280;7137;51.436;6.544;2024-01-11T13:06:15;102968.06;;;0.09;68.13
14117;BME280;7137;51.436;6.544;2024-01-11T13:09:17;102955.97;;;0.06;67.82
14117;BME280;7137;51.436;6.544;2024-01-11T13:12:18;102959.63;;;0.11;67.94
14117;BME280;7137;51.436;6.544;2024-01-11T13:15:21;102952.31;;;0.19;67.91
14117;BME280;7137;51.436;6.544;2024-01-11T13:18:25;102948.25;;;0.24;67.95
14117;BME280;7137;51.436;6.544;2024-01-11T13:21:26;102947.91;;;0.16;66.76
14117;BME280;7137;51.436;6.544;2024-01-11T13:24:28;102958.09;;;0.33;67.24
14117;BME280;7137;51.436;6.544;2024-01-11T13:27:29;102943.41;;;0.30;66.92
14117;BME280;7137;51.436;6.544;2024-01-11T13:30:31;102945.16;;;0.31;65.08
14117;BME280;7137;51.436;6.544;2024-01-11T13:33:34;102940.38;;;0.39;64.87
14117;BME280;7137;51.436;6.544;2024-01-11T13:36:36;102953.28;;;0.40;65.18
14117;BME280;7137;51.436;6.544;2024-01-11T13:39:37;102945.66;;;0.42;64.95
14117;BME280;7137;51.436;6.544;2024-01-11T13:42:39;102950.06;;;0.44;64.93
14117;BME280;7137;51.436;6.544;2024-01-11T13:45:41;102938.47;;;0.35;65.42
14117;BME280;7137;51.436;6.544;2024-01-11T13:48:45;102938.69;;;0.39;66.38
14117;BME280;7137;51.436;6.544;2024-01-11T13:51:47;102940.09;;;0.33;67.22
14117;BME280;7137;51.436;6.544;2024-01-11T13:54:49;102935.78;;;0.32;67.53
14117;BME280;7137;51.436;6.544;2024-01-11T13:57:50;102937.94;;;0.42;67.91
14117;BME280;7137;51.436;6.544;2024-01-11T14:00:52;102931.56;;;0.34;68.19
14117;BME280;7137;51.436;6.544;2024-01-11T14:03:55;102938.28;;;0.30;69.52
14117;BME280;7137;51.436;6.544;2024-01-11T14:06:57;102935.47;;;0.25;70.11
14117;BME280;7137;51.436;6.544;2024-01-11T14:09:58;102942.28;;;0.25;71.06
14117;BME280;7137;51.436;6.544;2024-01-11T14:13:00;102945.75;;;0.25;72.04
14117;BME280;7137;51.436;6.544;2024-01-11T14:16:03;102938.66;;;0.20;72.91
14117;BME280;7137;51.436;6.544;2024-01-11T14:19:06;102937.91;;;0.22;73.58
14117;BME280;7137;51.436;6.544;2024-01-11T14:22:08;102938.03;;;0.25;74.15
14117;BME280;7137;51.436;6.544;2024-01-11T14:25:10;102928.88;;;0.13;75.74
14117;BME280;7137;51.436;6.544;2024-01-11T14:28:12;102930.63;;;0.14;77.36
14117;BME280;7137;51.436;6.544;2024-01-11T14:31:13;102932.72;;;0.03;78.74
14117;BME280;7137;51.436;6.544;2024-01-11T14:34:16;102925.00;;;0.03;79.12
14117;BME280;7137;51.436;6.544;2024-01-11T14:37:18;102938.59;;;0.01;79.67
14117;BME280;7137;51.436;6.544;2024-01-11T14:40:19;102930.66;;;-0.04;80.16
14117;BME280;7137;51.436;6.544;2024-01-11T14:43:21;102929.19;;;0.01;80.75
14117;BME280;7137;51.436;6.544;2024-01-11T14:46:23;102944.31;;;-0.05;81.77
14117;BME280;7137;51.436;6.544;2024-01-11T14:49:26;102932.81;;;-0.13;83.23
14117;BME280;7137;51.436;6.544;2024-01-11T14:52:29;102932.41;;;-0.21;84.39
14117;BME280;7137;51.436;6.544;2024-01-11T14:55:32;102940.78;;;-0.25;84.95
14117;BME280;7137;51.436;6.544;2024-01-11T14:58:33;102936.28;;;-0.29;85.84
14117;BME280;7137;51.436;6.544;2024-01-11T15:01:35;102939.44;;;-0.35;86.92
14117;BME280;7137;51.436;6.544;2024-01-11T15:04:38;102956.38;;;-0.38;87.73
14117;BME280;7137;51.436;6.544;2024-01-11T15:07:39;102953.56;;;-0.43;88.37
14117;BME280;7137;51.436;6.544;2024-01-11T15:10:41;102953.06;;;-0.53;89.61
14117;BME280;7137;51.436;6.544;2024-01-11T15:13:43;102968.88;;;-0.62;91.85
14117;BME280;7137;51.436;6.544;2024-01-11T15:16:44;102947.16;;;-0.69;93.93
14117;BME280;7137;51.436;6.544;2024-01-11T15:19:49;102945.63;;;-0.65;94.57
14117;BME280;7137;51.436;6.544;2024-01-11T15:22:51;102955.47;;;-0.73;96.07
14117;BME280;7137;51.436;6.544;2024-01-11T15:25:52;102958.22;;;-0.70;96.33
14117;BME280;7137;51.436;6.544;2024-01-11T15:28:54;102960.34;;;-0.95;98.49
14117;BME280;7137;51.436;6.544;2024-01-11T15:31:56;102955.53;;;-1.05;99.89
14117;BME280;7137;51.436;6.544;2024-01-11T15:34:59;102956.47;;;-1.20;100.00
14117;BME280;7137;51.436;6.544;2024-01-11T15:38:00;102966.41;;;-1.26;100.00
14117;BME280;7137;51.436;6.544;2024-01-11T15:41:02;102963.06;;;-1.25;100.00
14117;BME280;7137;51.436;6.544;2024-01-11T15:44:05;102957.59;;;-1.31;100.00
14117;BME280;7137;51.436;6.544;2024-01-11T15:47:06;102965.44;;;-1.28;100.00
14117;BME280;7137;51.436;6.544;2024-01-11T15:50:12;102969.53;;;-1.15;100.00
14117;BME280;7137;51.436;6.544;2024-01-11T15:53:13;102962.97;;;-0.94;100.00
14117;BME280;7137;51.436;6.544;2024-01-11T15:56:15;102967.69;;;-0.85;100.00
14117;BME280;7137;51.436;6.544;2024-01-11T15:59:16;102966.56;;;-0.74;100.00
14117;BME280;7137;51.436;6.544;2024-01-11T16:02:18;102969.59;;;-0.65;100.00
14117;BME280;7137;51.436;6.544;2024-01-11T16:05:22;102970.44;;;-0.48;100.00
14117;BME280;7137;51.436;6.544;2024-01-11T16:08:23;102977.19;;;-0.50;100.00